Time;durP1;ratioP1;P1;durP2;ratioP2;P2;SDS_P1;SDS_P2;PMS_P1;PMS_P2;Temp;Humidity;BMP_temperature;BMP_pressure;BME280_temperature;BME280_humidity;BME280_pressure;Samples;Min_cycle;Max_cycle;Signal;HPM_P1;HPM_P2
2023/12/06 00:00:37;;;;;;;3.10;2.80;;;;;;;19.78;35.51;100971.53;5077855;28;20059;-68
2023/12/06 00:03:03;;;;;;;3.10;2.80;;;;;;;19.76;35.41;100957.69;5031267;28;20039;-68
2023/12/06 00:05:30;;;;;;;2.78;2.55;;;;;;;19.74;35.49;100961.47;5086249;28;20390;-68
2023/12/06 00:07:55;;;;;;;2.80;2.60;;;;;;;19.71;35.41;100961.81;5026362;28;21139;-68
2023/12/06 00:10:21;;;;;;;3.20;2.90;;;;;;;19.74;35.47;100964.13;5073644;28;20671;-68
2023/12/06 00:12:46;;;;;;;2.70;2.50;;;;;;;19.76;35.54;100967.44;5029091;28;20044;-67
2023/12/06 00:15:12;;;;;;;3.00;2.67;;;;;;;19.71;35.47;100945.97;5070291;28;20082;-67
2023/12/06 00:17:38;;;;;;;3.03;2.72;;;;;;;19.73;35.58;100954.53;5028488;28;20046;-67
2023/12/06 00:20:04;;;;;;;3.25;2.95;;;;;;;19.73;35.57;100960.66;5083511;28;20040;-67
2023/12/06 00:22:30;;;;;;;3.00;2.70;;;;;;;19.73;35.57;100957.19;5035287;28;20058;-67
2023/12/06 00:24:55;;;;;;;3.00;2.70;;;;;;;19.70;35.70;100965.47;5068906;28;20036;-67
2023/12/06 00:27:21;;;;;;;3.00;2.70;;;;;;;19.69;35.55;100975.22;4996604;28;20124;-67
2023/12/06 00:29:46;;;;;;;3.28;2.97;;;;;;;19.71;35.54;100969.75;5067677;28;20040;-68
2023/12/06 00:32:12;;;;;;;3.38;2.80;;;;;;;19.70;35.67;100968.94;5017751;28;20471;-67
2023/12/06 00:34:37;;;;;;;3.08;2.78;;;;;;;19.50;35.73;100936.84;5068893;28;20055;-67
2023/12/06 00:37:03;;;;;;;3.20;2.90;;;;;;;19.66;35.67;100978.22;5016799;28;20036;-67
2023/12/06 00:39:28;;;;;;;2.95;2.65;;;;;;;19.62;35.74;100971.63;5071644;28;20127;-67
2023/12/06 00:41:54;;;;;;;3.17;2.88;;;;;;;19.67;35.68;100977.22;4992559;28;20051;-67
2023/12/06 00:44:19;;;;;;;2.92;2.72;;;;;;;19.69;35.69;100977.03;5045711;28;20059;-67
2023/12/06 00:46:45;;;;;;;2.72;2.53;;;;;;;19.65;35.75;100973.94;5014920;28;20098;-67
2023/12/06 00:49:11;;;;;;;2.83;2.55;;;;;;;19.66;35.79;100972.09;5085007;28;20051;-67
2023/12/06 00:51:38;;;;;;;3.33;2.90;;;;;;;19.55;35.74;100958.28;5027438;28;20031;-67
2023/12/06 00:54:04;;;;;;;3.40;3.10;;;;;;;19.61;35.70;100973.47;5094853;28;20039;-67
2023/12/06 00:56:29;;;;;;;2.85;2.55;;;;;;;19.64;35.69;100984.69;5024469;28;20594;-68
2023/12/06 00:58:55;;;;;;;3.03;2.72;;;;;;;19.61;35.67;100984.03;5088700;28;20036;-68
2023/12/06 01:01:21;;;;;;;3.17;2.88;;;;;;;19.65;35.66;100984.50;5063954;28;20042;-68
2023/12/06 01:03:47;;;;;;;3.28;2.97;;;;;;;19.57;35.81;100974.00;5086590;28;20081;-67
2023/12/06 01:06:13;;;;;;;2.70;2.50;;;;;;;19.60;35.74;100978.91;5018472;28;22129;-67
2023/12/06 01:08:38;;;;;;;3.00;2.67;;;;;;;19.47;35.71;100962.78;5082684;28;20059;-67
2023/12/06 01:11:04;;;;;;;4.15;2.80;;;;;;;19.60;35.65;100984.22;5035183;28;20541;-68
2023/12/06 01:13:29;;;;;;;3.03;2.72;;;;;;;19.55;35.75;100982.06;5076642;28;20032;-67
2023/12/06 01:15:56;;;;;;;3.00;2.70;;;;;;;19.57;35.75;100988.03;5037080;28;20041;-67
2023/12/06 01:18:21;;;;;;;3.20;2.90;;;;;;;19.59;35.87;100988.66;5052244;28;20044;-67
2023/12/06 01:20:47;;;;;;;2.85;2.55;;;;;;;19.58;35.70;100989.66;5084277;28;20044;-67
2023/12/06 01:23:13;;;;;;;2.72;2.53;;;;;;;19.59;35.84;100993.13;5029414;28;20048;-67
2023/12/06 01:25:38;;;;;;;3.10;2.80;;;;;;;19.58;35.76;100996.78;5058053;28;20029;-67
2023/12/06 01:28:04;;;;;;;3.13;2.78;;;;;;;19.58;35.60;100992.31;5025365;28;20591;-68
2023/12/06 01:30:29;;;;;;;2.95;2.65;;;;;;;19.55;35.75;100994.44;5080492;28;20078;-67
2023/12/06 01:32:55;;;;;;;3.10;2.80;;;;;;;19.56;35.88;101004.84;5029809;28;20054;-68
2023/12/06 01:35:21;;;;;;;2.90;2.67;;;;;;;19.56;35.71;101007.47;5069822;28;20051;-67
2023/12/06 01:37:47;;;;;;;2.97;2.75;;;;;;;19.51;35.69;101001.88;5029158;28;20040;-68
2023/12/06 01:40:13;;;;;;;2.70;2.50;;;;;;;19.51;35.84;101012.44;5078093;28;20054;-67
2023/12/06 01:42:38;;;;;;;2.95;2.70;;;;;;;19.52;35.83;101011.44;5027698;28;20062;-67
2023/12/06 01:45:04;;;;;;;3.35;2.85;;;;;;;19.53;35.80;101020.19;5080507;28;20039;-67
2023/12/06 01:47:30;;;;;;;2.80;2.60;;;;;;;19.52;35.75;101019.38;5012659;28;20039;-68
2023/12/06 01:50:01;;;;;;;2.88;2.60;;;;;;;19.50;35.86;101021.34;5066687;28;20044;-67
2023/12/06 01:52:27;;;;;;;3.17;2.88;;;;;;;19.51;35.87;101020.34;5024982;28;20035;-68
2023/12/06 01:54:57;;;;;;;3.00;2.65;;;;;;;19.51;35.83;101019.53;5088042;28;20576;-67
2023/12/06 01:57:29;;;;;;;2.80;2.60;;;;;;;19.52;35.79;101021.19;5028241;28;20050;-67
2023/12/06 01:59:56;;;;;;;3.30;3.00;;;;;;;19.43;35.83;101014.31;5083141;28;20036;-67
2023/12/06 02:02:22;;;;;;;2.90;2.60;;;;;;;19.48;35.81;101033.09;5007946;28;20031;-68
2023/12/06 02:04:48;;;;;;;2.80;2.50;;;;;;;19.49;35.75;101035.56;5078059;28;20043;-67
2023/12/06 02:07:15;;;;;;;2.70;2.45;;;;;;;19.50;35.82;101033.75;5082224;28;20736;-67
2023/12/06 02:09:41;;;;;;;2.83;2.55;;;;;;;19.45;36.03;101030.81;5077888;28;20040;-67
2023/12/06 02:12:06;;;;;;;2.70;2.50;;;;;;;19.51;35.72;101035.38;5061896;28;20471;-68
2023/12/06 02:14:34;;;;;;;2.80;2.53;;;;;;;19.46;35.82;101032.44;5081310;28;20068;-67
2023/12/06 02:17:04;;;;;;;3.00;2.70;;;;;;;19.49;35.90;101040.84;5081290;28;20086;-68
2023/12/06 02:19:31;;;;;;;3.28;2.97;;;;;;;19.48;35.81;101033.91;5078401;28;20771;-67
2023/12/06 02:21:57;;;;;;;3.10;2.80;;;;;;;19.48;35.72;101039.19;5082341;28;20028;-68
2023/12/06 02:24:27;;;;;;;2.80;2.50;;;;;;;19.41;35.83;101027.69;5068087;28;20486;-67
2023/12/06 02:26:54;;;;;;;2.97;2.70;;;;;;;19.49;35.82;101047.94;5080282;28;20036;-68
2023/12/06 02:29:20;;;;;;;3.38;2.83;;;;;;;19.42;35.92;101036.44;5078893;28;20044;-67
2023/12/06 02:31:45;;;;;;;2.90;2.60;;;;;;;19.46;35.86;101051.75;5062312;28;20043;-67
2023/12/06 02:34:19;;;;;;;3.00;2.70;;;;;;;19.40;36.09;101033.16;5064581;28;20689;-67
2023/12/06 02:36:48;;;;;;;2.92;2.55;;;;;;;19.44;35.92;101048.47;5068602;28;21438;-68
2023/12/06 02:39:15;;;;;;;3.10;2.80;;;;;;;19.42;35.89;101047.81;5065780;28;20167;-68
2023/12/06 02:41:41;;;;;;;3.22;2.88;;;;;;;19.45;35.93;101047.47;5068861;28;20055;-67
2023/12/06 02:44:07;;;;;;;3.30;3.00;;;;;;;19.44;35.90;101042.34;5066800;28;20044;-67
2023/12/06 02:46:34;;;;;;;3.20;2.90;;;;;;;19.47;35.82;101044.66;5051768;28;20082;-67
2023/12/06 02:48:59;;;;;;;3.20;2.90;;;;;;;19.41;35.87;101040.06;5072256;28;20413;-68
2023/12/06 02:51:25;;;;;;;3.28;2.83;;;;;;;19.43;36.12;101048.63;5068481;28;20088;-68
2023/12/06 02:53:50;;;;;;;3.00;2.70;;;;;;;19.44;35.85;101047.66;5084212;28;20028;-67
2023/12/06 02:56:16;;;;;;;3.30;3.00;;;;;;;19.37;35.92;101042.19;5087338;28;20644;-68
2023/12/06 02:58:41;;;;;;;3.22;2.60;;;;;;;19.44;35.88;101059.03;5087417;28;20039;-68
2023/12/06 03:01:07;;;;;;;3.10;2.80;;;;;;;19.50;35.67;101054.88;5090918;28;20650;-67
2023/12/06 03:03:32;;;;;;;2.67;2.47;;;;;;;19.47;35.79;101040.19;5087048;28;20051;-67
2023/12/06 03:05:58;;;;;;;2.78;2.58;;;;;;;19.55;35.82;101052.56;5075454;28;20032;-67
2023/12/06 03:08:23;;;;;;;3.30;3.00;;;;;;;19.49;35.74;101051.41;5080662;28;20766;-67
2023/12/06 03:10:49;;;;;;;2.90;2.55;;;;;;;19.56;35.74;101057.66;5073604;28;20064;-67
2023/12/06 03:13:14;;;;;;;2.97;2.70;;;;;;;19.54;35.74;101059.66;5049430;28;20124;-67
2023/12/06 03:15:40;;;;;;;2.60;2.38;;;;;;;19.47;35.73;101042.00;5082834;28;20101;-68
2023/12/06 03:18:05;;;;;;;3.15;2.67;;;;;;;19.37;35.78;101028.19;5075040;28;20112;-67
2023/12/06 03:20:31;;;;;;;3.08;2.78;;;;;;;19.46;35.76;101049.13;5070134;28;20047;-68
2023/12/06 03:22:56;;;;;;;3.00;2.63;;;;;;;19.52;35.81;101063.44;5081799;28;20040;-68
2023/12/06 03:25:22;;;;;;;2.90;2.50;;;;;;;19.44;35.69;101051.09;5086202;28;20052;-67
2023/12/06 03:27:47;;;;;;;2.60;2.40;;;;;;;19.49;35.85;101063.78;5076186;28;20028;-67
2023/12/06 03:30:13;;;;;;;3.15;2.85;;;;;;;19.42;35.78;101053.09;5066036;28;20036;-67
2023/12/06 03:32:38;;;;;;;3.22;2.80;;;;;;;19.44;35.85;101047.66;5079805;28;20032;-67
2023/12/06 03:35:05;;;;;;;3.60;2.67;;;;;;;19.46;35.91;101057.03;5071505;28;20044;-67
2023/12/06 03:37:30;;;;;;;2.90;2.40;;;;;;;19.49;35.90;101063.78;5069887;28;20047;-67
2023/12/06 03:39:56;;;;;;;2.78;2.58;;;;;;;19.47;35.82;101063.97;5074323;28;20019;-68
2023/12/06 03:42:21;;;;;;;2.50;2.28;;;;;;;19.46;35.92;101059.69;5069884;28;20575;-67
2023/12/06 03:44:47;;;;;;;2.65;2.45;;;;;;;19.28;35.88;101036.16;5078119;28;20044;-67
2023/12/06 03:47:12;;;;;;;2.35;2.15;;;;;;;19.43;35.97;101061.84;5076011;28;20040;-68
2023/12/06 03:49:38;;;;;;;3.13;2.75;;;;;;;19.45;35.87;101065.13;5086059;28;20697;-67
2023/12/06 03:52:03;;;;;;;2.92;2.63;;;;;;;19.41;35.97;101071.75;5082373;28;20040;-67
2023/12/06 03:54:29;;;;;;;2.60;2.40;;;;;;;19.37;36.01;101065.97;5078463;28;20069;-68
2023/12/06 03:56:55;;;;;;;2.80;2.50;;;;;;;19.42;35.94;101076.03;5048279;28;20487;-68
2023/12/06 03:59:21;;;;;;;2.75;2.55;;;;;;;19.42;35.84;101079.50;5084983;28;20071;-68
2023/12/06 04:01:47;;;;;;;2.75;2.55;;;;;;;19.41;35.99;101082.31;5083890;28;20044;-68
2023/12/06 04:04:14;;;;;;;2.78;2.58;;;;;;;19.39;35.91;101077.22;5082311;28;20032;-67
2023/12/06 04:06:39;;;;;;;2.78;2.50;;;;;;;19.40;36.01;101085.97;5080905;28;20029;-67
2023/12/06 04:09:06;;;;;;;3.00;2.53;;;;;;;19.39;35.94;101087.78;5050837;28;20388;-67
2023/12/06 04:11:32;;;;;;;2.63;2.42;;;;;;;19.36;35.96;101088.09;5070717;28;20067;-67
2023/12/06 04:13:58;;;;;;;2.67;2.40;;;;;;;19.32;35.89;101086.78;5081937;28;20411;-68
2023/12/06 04:16:23;;;;;;;2.70;2.50;;;;;;;19.37;35.86;101088.91;5084847;28;20040;-68
2023/12/06 04:18:49;;;;;;;2.30;2.10;;;;;;;19.36;35.89;101093.38;5069145;28;20046;-67
2023/12/06 04:21:14;;;;;;;2.83;2.40;;;;;;;19.38;35.98;101094.03;5083902;28;20058;-67
2023/12/06 04:23:40;;;;;;;2.45;2.25;;;;;;;19.37;36.09;101094.19;5070304;28;20051;-67
2023/12/06 04:26:05;;;;;;;2.60;2.40;;;;;;;19.36;36.01;101092.56;5079329;28;20055;-67
2023/12/06 04:28:31;;;;;;;2.67;2.47;;;;;;;19.36;36.04;101103.94;5090645;28;20101;-67
2023/12/06 04:30:56;;;;;;;2.70;2.50;;;;;;;19.28;36.11;101088.94;5086338;28;20035;-67
2023/12/06 04:33:22;;;;;;;2.60;2.40;;;;;;;19.35;36.04;101096.19;5068723;28;20048;-67
2023/12/06 04:35:47;;;;;;;2.75;2.35;;;;;;;19.31;36.03;101093.06;5084623;28;20086;-67
2023/12/06 04:38:13;;;;;;;2.70;2.50;;;;;;;19.34;35.97;101103.28;5086830;28;20574;-67
2023/12/06 04:40:39;;;;;;;2.40;2.20;;;;;;;19.32;36.06;101097.34;5083550;28;20055;-67
2023/12/06 04:43:04;;;;;;;2.88;2.30;;;;;;;19.30;35.98;101092.25;5067830;28;20040;-68
2023/12/06 04:45:30;;;;;;;2.40;2.20;;;;;;;19.25;36.21;101085.84;5086972;28;20044;-68
2023/12/06 04:47:55;;;;;;;2.58;2.38;;;;;;;19.31;35.85;101091.25;5087522;28;20039;-68
2023/12/06 04:50:21;;;;;;;2.80;2.45;;;;;;;19.42;35.85;101105.09;5083226;28;20124;-67
2023/12/06 04:52:46;;;;;;;2.53;2.33;;;;;;;19.51;35.64;101107.53;5086249;28;20455;-68
2023/12/06 04:55:12;;;;;;;2.70;2.50;;;;;;;19.55;35.56;101102.75;5087850;28;20055;-68
2023/12/06 04:57:37;;;;;;;3.55;2.83;;;;;;;19.53;35.81;101108.16;5079373;28;20111;-67
2023/12/06 05:00:07;;;;;;;2.10;1.98;;;;;;;19.54;35.64;101109.84;5080600;28;20047;-67
2023/12/06 05:02:32;;;;;;;2.00;1.90;;;;;;;19.52;35.72;101116.28;5083358;28;20376;-68
2023/12/06 05:04:58;;;;;;;2.65;2.40;;;;;;;19.51;35.67;101118.09;5086319;28;20044;-68
2023/12/06 05:07:23;;;;;;;2.15;1.95;;;;;;;19.45;35.77;101108.22;5066475;28;20051;-68
2023/12/06 05:09:49;;;;;;;2.20;2.00;;;;;;;19.40;35.76;101107.91;5084083;28;20040;-67
2023/12/06 05:12:14;;;;;;;2.13;1.92;;;;;;;19.49;35.88;101121.91;5063033;28;20514;-67
2023/12/06 05:14:40;;;;;;;2.97;2.10;;;;;;;19.36;35.75;101100.47;5068994;28;20092;-67
2023/12/06 05:17:05;;;;;;;2.17;2.08;;;;;;;19.28;36.01;101096.06;5085248;28;20051;-67
2023/12/06 05:19:31;;;;;;;2.60;2.40;;;;;;;19.43;35.81;101123.41;5079989;28;20039;-67
2023/12/06 05:21:56;;;;;;;2.50;2.30;;;;;;;19.44;36.03;101125.06;5079867;28;20039;-67
2023/12/06 05:24:22;;;;;;;2.28;2.15;;;;;;;19.47;35.80;101127.34;5085951;28;20037;-67
2023/12/06 05:26:47;;;;;;;2.10;1.90;;;;;;;19.46;35.82;101128.34;5083752;28;20048;-67
2023/12/06 05:29:13;;;;;;;2.38;2.17;;;;;;;19.41;35.93;101116.66;5081271;28;20062;-67
2023/12/06 05:31:38;;;;;;;2.47;2.28;;;;;;;19.44;35.87;101130.34;5081976;28;20349;-68
2023/12/06 05:34:04;;;;;;;2.20;2.00;;;;;;;19.39;36.01;101119.47;5079513;28;20047;-67
2023/12/06 05:36:29;;;;;;;2.70;2.20;;;;;;;19.37;35.89;101118.78;5081824;28;20114;-68
2023/12/06 05:38:55;;;;;;;2.22;2.03;;;;;;;19.43;36.00;101127.88;5073907;28;20398;-68
2023/12/06 05:41:20;;;;;;;2.38;2.00;;;;;;;19.44;36.00;101143.53;5083156;28;20038;-68
2023/12/06 05:43:46;;;;;;;2.50;2.20;;;;;;;19.45;36.00;101139.09;5079199;28;20040;-68
2023/12/06 05:46:11;;;;;;;2.03;1.92;;;;;;;19.41;36.06;101135.16;5085081;28;20046;-68
2023/12/06 05:48:37;;;;;;;2.53;2.13;;;;;;;19.42;36.11;101137.59;5066484;28;20079;-68
2023/12/06 05:51:03;;;;;;;2.45;2.25;;;;;;;19.38;36.26;101135.44;5086830;28;20046;-68
2023/12/06 05:53:28;;;;;;;2.20;2.00;;;;;;;19.42;36.06;101136.78;5081943;28;20566;-67
2023/12/06 05:55:54;;;;;;;2.13;1.92;;;;;;;19.42;36.05;101142.06;5080836;28;20634;-68
2023/12/06 05:58:19;;;;;;;2.03;1.83;;;;;;;19.42;36.13;101150.00;5082237;28;20097;-68
2023/12/06 06:00:45;;;;;;;2.28;2.08;;;;;;;19.43;36.04;101143.72;5082129;28;20040;-67
2023/12/06 06:03:10;;;;;;;2.08;1.88;;;;;;;19.40;35.99;101138.78;5079474;28;20504;-68
2023/12/06 06:05:36;;;;;;;2.03;1.90;;;;;;;19.25;36.02;101115.69;5086077;28;20062;-68
2023/12/06 06:08:02;;;;;;;2.33;2.10;;;;;;;19.42;36.06;101139.44;5084116;28;20045;-68
2023/12/06 06:10:28;;;;;;;1.92;1.73;;;;;;;19.42;36.04;101144.72;5082098;28;20074;-68
2023/12/06 06:12:54;;;;;;;2.00;1.90;;;;;;;19.37;36.08;101131.16;5083199;28;20027;-67
2023/12/06 06:15:20;;;;;;;2.15;2.05;;;;;;;19.42;36.09;101152.63;5083831;28;20035;-67
2023/12/06 06:17:45;;;;;;;2.20;1.90;;;;;;;19.41;36.23;101159.72;5007071;28;20046;-68
2023/12/06 06:20:11;;;;;;;2.10;1.90;;;;;;;19.33;36.19;101147.34;5089495;28;20032;-68
2023/12/06 06:22:36;;;;;;;1.88;1.77;;;;;;;19.38;36.08;101161.88;5081824;28;20466;-68
2023/12/06 06:25:02;;;;;;;1.98;1.80;;;;;;;19.35;36.18;101163.03;5027982;28;20159;-67
2023/12/06 06:27:28;;;;;;;1.90;1.80;;;;;;;19.36;36.16;101169.94;5092283;28;20478;-68
2023/12/06 06:29:53;;;;;;;2.22;2.03;;;;;;;19.33;36.22;101176.41;5026150;28;20028;-68
2023/12/06 06:32:19;;;;;;;2.15;1.95;;;;;;;19.33;36.30;101178.22;5061679;28;20354;-68
2023/12/06 06:34:44;;;;;;;2.13;1.80;;;;;;;19.31;36.20;101174.94;5024348;28;20047;-68
2023/12/06 06:37:10;;;;;;;1.90;1.80;;;;;;;19.32;36.18;101185.31;5069818;28;20511;-67
2023/12/06 06:39:35;;;;;;;2.35;2.15;;;;;;;19.27;36.20;101171.81;5031148;28;20040;-68
2023/12/06 06:42:01;;;;;;;2.08;1.88;;;;;;;19.25;36.30;101168.50;5081931;28;20487;-68
2023/12/06 06:44:29;;;;;;;2.22;2.03;;;;;;;19.30;36.33;101182.03;5028314;28;20044;-68
2023/12/06 06:46:55;;;;;;;2.20;2.00;;;;;;;19.26;36.32;101174.59;5079338;28;20036;-68
2023/12/06 06:49:21;;;;;;;2.05;1.90;;;;;;;19.20;36.35;101173.44;5032707;28;20028;-68
2023/12/06 06:51:47;;;;;;;2.15;1.98;;;;;;;19.25;36.39;101184.34;5087296;28;20047;-67
2023/12/06 06:54:12;;;;;;;1.92;1.83;;;;;;;19.16;36.26;101168.66;5022356;28;20067;-68
2023/12/06 06:56:38;;;;;;;1.95;1.80;;;;;;;19.22;36.23;101187.31;5078955;28;20027;-68
2023/12/06 06:59:03;;;;;;;2.10;1.90;;;;;;;19.18;36.44;101180.72;5031976;28;20043;-68
2023/12/06 07:01:29;;;;;;;2.10;1.90;;;;;;;19.22;36.19;101183.88;5082120;28;20044;-68
2023/12/06 07:03:54;;;;;;;2.00;1.90;;;;;;;19.20;36.39;101193.75;5026633;28;20028;-69
2023/12/06 07:06:20;;;;;;;2.05;1.85;;;;;;;19.22;36.28;101192.59;5069160;28;20039;-69
2023/12/06 07:08:46;;;;;;;2.30;2.10;;;;;;;19.53;35.79;101194.50;5033676;28;20059;-68
2023/12/06 07:11:12;;;;;;;2.25;2.05;;;;;;;19.99;35.15;101197.38;5075477;28;20040;-68
2023/12/06 07:13:38;;;;;;;2.13;1.92;;;;;;;20.44;34.46;101196.69;5029312;28;20093;-69
2023/12/06 07:16:04;;;;;;;2.22;2.00;;;;;;;20.67;34.11;101204.66;5077684;28;20149;-67
2023/12/06 07:18:31;;;;;;;1.90;1.80;;;;;;;21.03;33.73;101203.06;5017456;28;20118;-67
2023/12/06 07:20:58;;;;;;;2.03;1.92;;;;;;;21.12;33.59;101201.97;5060794;28;20122;-68
2023/12/06 07:23:23;;;;;;;1.67;1.58;;;;;;;20.97;33.85;101202.91;5078673;28;20190;-68
2023/12/06 07:25:50;;;;;;;2.03;1.88;;;;;;;20.79;34.15;101208.50;5020226;28;21542;-67
2023/12/06 07:28:16;;;;;;;2.10;1.95;;;;;;;20.64;34.60;101207.63;5085558;28;20041;-67
2023/12/06 07:30:42;;;;;;;1.80;1.70;;;;;;;20.56;34.67;101207.69;5040079;28;20039;-67
2023/12/06 07:33:07;;;;;;;2.20;2.00;;;;;;;20.40;34.51;101212.03;5080280;28;20048;-67
2023/12/06 07:35:36;;;;;;;1.67;1.58;;;;;;;20.31;35.23;101220.22;5056237;28;20452;-68
2023/12/06 07:38:02;;;;;;;1.87;1.77;;;;;;;20.22;35.34;101224.72;5067898;28;20036;-68
2023/12/06 07:40:29;;;;;;;1.80;1.70;;;;;;;20.14;35.40;101224.75;5059070;28;20047;-68
2023/12/06 07:42:55;;;;;;;2.10;1.90;;;;;;;20.11;35.15;101230.41;5051934;28;20510;-68
2023/12/06 07:45:21;;;;;;;1.67;1.58;;;;;;;19.94;35.42;101203.19;5074107;28;20036;-68
2023/12/06 07:47:48;;;;;;;1.73;1.63;;;;;;;20.03;35.65;101227.75;5027018;28;20075;-68
2023/12/06 07:50:13;;;;;;;1.92;1.83;;;;;;;19.90;35.63;101215.91;5085411;28;20024;-67
2023/12/06 07:52:39;;;;;;;1.90;1.80;;;;;;;19.75;35.89;101195.63;5032853;28;21109;-67
2023/12/06 07:55:06;;;;;;;1.80;1.70;;;;;;;19.87;35.80;101231.28;5089904;28;20036;-67
2023/12/06 07:57:35;;;;;;;1.73;1.63;;;;;;;19.86;35.83;101233.09;5029487;28;20040;-67
2023/12/06 08:00:00;;;;;;;2.10;1.90;;;;;;;19.83;35.83;101238.75;5085251;28;20502;-68
2023/12/06 08:02:26;;;;;;;1.77;1.67;;;;;;;19.81;35.81;101227.50;5030515;28;20039;-68
2023/12/06 08:04:51;;;;;;;1.77;1.67;;;;;;;20.16;35.50;101238.63;5088275;28;20028;-67
2023/12/06 08:07:17;;;;;;;1.70;1.60;;;;;;;20.56;34.59;101242.09;5031038;28;20047;-68
2023/12/06 08:09:43;;;;;;;1.83;1.73;;;;;;;20.98;33.93;101234.50;5069607;28;20047;-68
2023/12/06 08:12:09;;;;;;;1.70;1.60;;;;;;;21.25;33.68;101240.31;5009898;28;20028;-67
2023/12/06 08:14:35;;;;;;;1.70;1.60;;;;;;;21.13;33.73;101245.16;5079124;28;20055;-68
2023/12/06 08:17:00;;;;;;;1.67;1.58;;;;;;;20.95;34.11;101242.81;5027466;28;20452;-68
2023/12/06 08:19:26;;;;;;;1.77;1.67;;;;;;;20.84;34.13;101245.06;5085563;28;20028;-68
2023/12/06 08:21:52;;;;;;;1.95;1.85;;;;;;;20.73;34.41;101255.03;5031299;28;20494;-68
2023/12/06 08:24:17;;;;;;;1.80;1.70;;;;;;;20.65;34.72;101249.00;5089419;28;20044;-68
2023/12/06 08:26:43;;;;;;;1.60;1.50;;;;;;;20.54;34.82;101257.31;5030032;28;20052;-68
2023/12/06 08:29:09;;;;;;;1.80;1.70;;;;;;;20.45;35.01;101259.16;5085002;28;20040;-68
2023/12/06 08:31:36;;;;;;;1.95;1.75;;;;;;;20.27;35.17;101240.03;5062314;28;20036;-68
2023/12/06 08:34:02;;;;;;;1.80;1.70;;;;;;;20.30;35.23;101255.59;5089435;28;20032;-68
2023/12/06 08:36:27;;;;;;;1.38;1.27;;;;;;;20.22;35.33;101245.84;5033801;28;20055;-68
2023/12/06 08:38:53;;;;;;;1.77;1.65;;;;;;;20.18;35.58;101255.13;5075410;28;20036;-67
2023/12/06 08:41:19;;;;;;;1.83;1.73;;;;;;;20.17;35.41;101259.59;5034012;28;20032;-68
2023/12/06 08:43:45;;;;;;;2.13;1.88;;;;;;;20.13;35.61;101265.41;5087006;28;20031;-68
2023/12/06 08:46:11;;;;;;;1.90;1.75;;;;;;;20.03;35.62;101267.41;5032499;28;20221;-68
2023/12/06 08:48:37;;;;;;;1.73;1.63;;;;;;;20.06;35.71;101277.66;5069617;28;20118;-68
2023/12/06 08:51:02;;;;;;;1.75;1.63;;;;;;;19.97;35.70;101274.22;5034925;28;20628;-67
2023/12/06 08:53:28;;;;;;;1.95;1.67;;;;;;;19.95;35.83;101278.84;5089436;28;20043;-68
2023/12/06 08:55:54;;;;;;;1.55;1.45;;;;;;;19.94;35.71;101285.13;5037732;28;21331;-68
2023/12/06 08:58:20;;;;;;;1.70;1.60;;;;;;;19.87;35.95;101279.69;5067320;28;20028;-67
2023/12/06 09:00:46;;;;;;;1.45;1.35;;;;;;;19.88;35.96;101281.31;5038414;28;20629;-68
2023/12/06 09:03:11;;;;;;;1.67;1.58;;;;;;;19.86;35.84;101288.59;5091097;28;20036;-67
2023/12/06 09:05:38;;;;;;;1.80;1.70;;;;;;;19.85;36.06;101288.78;5035896;28;20036;-67
2023/12/06 09:08:05;;;;;;;1.83;1.73;;;;;;;19.77;35.94;101279.06;5072584;28;20071;-68
2023/12/06 09:10:30;;;;;;;1.80;1.70;;;;;;;19.79;36.01;101285.00;5030869;28;20455;-68
2023/12/06 09:12:56;;;;;;;1.70;1.60;;;;;;;19.80;36.03;101283.19;5063620;28;20036;-68
2023/12/06 09:15:22;;;;;;;1.80;1.70;;;;;;;19.77;36.03;101288.81;5028628;28;20044;-67
2023/12/06 09:17:48;;;;;;;1.80;1.70;;;;;;;19.69;36.07;101279.06;5083939;28;20777;-68
2023/12/06 09:20:13;;;;;;;1.60;1.50;;;;;;;19.72;36.11;101286.66;5028702;28;21925;-67
2023/12/06 09:22:39;;;;;;;2.10;1.90;;;;;;;19.85;35.79;101294.88;5086167;28;20081;-67
2023/12/06 09:25:05;;;;;;;1.70;1.60;;;;;;;20.11;35.39;101292.03;5011611;28;20041;-68
2023/12/06 09:27:31;;;;;;;1.73;1.63;;;;;;;20.39;35.05;101289.75;5087742;28;20043;-68
2023/12/06 09:29:57;;;;;;;1.83;1.65;;;;;;;20.56;34.71;101297.66;5050351;28;20040;-68
2023/12/06 09:32:25;;;;;;;1.50;1.40;;;;;;;20.60;34.55;101299.78;5080240;28;20236;-68
2023/12/06 09:34:52;;;;;;;1.80;1.70;;;;;;;20.47;34.82;101292.41;5043642;28;20035;-68
2023/12/06 09:37:18;;;;;;;1.55;1.45;;;;;;;20.38;34.94;101289.94;5060527;28;20036;-68
2023/12/06 09:39:44;;;;;;;1.80;1.70;;;;;;;20.22;34.96;101278.41;5065593;28;20048;-68
2023/12/06 09:42:10;;;;;;;1.63;1.52;;;;;;;20.34;35.17;101300.03;5085358;28;20179;-67
2023/12/06 09:44:41;;;;;;;1.58;1.48;;;;;;;20.30;35.27;101308.50;5010635;28;20044;-68
2023/12/06 09:47:06;;;;;;;1.58;1.30;;;;;;;20.31;35.23;101307.50;5083843;28;20065;-68
2023/12/06 09:49:32;;;;;;;1.63;1.50;;;;;;;20.29;35.20;101312.09;5032286;28;20470;-67
2023/12/06 09:52:07;;;;;;;1.85;1.75;;;;;;;20.25;35.38;101305.50;5091868;28;20046;-68
2023/12/06 09:54:32;;;;;;;1.63;1.52;;;;;;;20.13;35.37;101294.50;5034388;28;20032;-67
2023/12/06 09:56:58;;;;;;;2.15;1.70;;;;;;;20.10;35.39;101297.47;5095750;28;20024;-67
2023/12/06 09:59:23;;;;;;;1.50;1.40;;;;;;;20.14;35.48;101319.94;5041209;28;20516;-67
2023/12/06 10:01:49;;;;;;;2.08;1.77;;;;;;;20.12;35.61;101320.13;5087490;28;20470;-68
2023/12/06 10:04:14;;;;;;;1.60;1.50;;;;;;;20.09;35.53;101311.66;5038444;28;20047;-69
2023/12/06 10:06:42;;;;;;;1.60;1.50;;;;;;;20.01;35.62;101309.06;5082639;28;20039;-67
2023/12/06 10:09:10;;;;;;;1.65;1.55;;;;;;;20.04;35.72;101316.66;5017364;28;20517;-67
2023/12/06 10:11:35;;;;;;;1.88;1.77;;;;;;;19.98;35.67;101310.22;5089030;28;20048;-67
2023/12/06 10:14:02;;;;;;;1.33;1.23;;;;;;;19.99;35.84;101322.44;5028905;28;20488;-68
2023/12/06 10:16:28;;;;;;;1.80;1.70;;;;;;;19.99;35.79;101316.34;5080653;28;20032;-67
2023/12/06 10:18:54;;;;;;;1.70;1.58;;;;;;;19.85;35.76;101310.75;5021170;28;22254;-67
2023/12/06 10:21:21;;;;;;;1.67;1.58;;;;;;;19.91;35.74;101312.69;5087631;28;20027;-67
2023/12/06 10:23:57;;;;;;;1.80;1.70;;;;;;;20.25;35.29;101326.66;5042394;28;20032;-68
2023/12/06 10:26:29;;;;;;;1.95;1.70;;;;;;;20.64;34.61;101324.06;5083400;28;20487;-68
2023/12/06 10:28:54;;;;;;;1.60;1.50;;;;;;;20.83;34.19;101315.72;5027058;28;21519;-67
2023/12/06 10:31:20;;;;;;;1.52;1.42;;;;;;;20.93;34.23;101323.41;5085775;28;20019;-68
2023/12/06 10:33:54;;;;;;;1.52;1.40;;;;;;;20.86;34.36;101330.41;5027103;28;20051;-67
2023/12/06 10:36:21;;;;;;;1.65;1.55;;;;;;;20.75;34.51;101329.81;5067953;28;20036;-68
2023/12/06 10:38:47;;;;;;;1.65;1.55;;;;;;;20.68;34.60;101326.22;5043211;28;20040;-67
2023/12/06 10:41:16;;;;;;;1.73;1.63;;;;;;;20.64;34.79;101335.47;5056743;28;20047;-68
2023/12/06 10:43:43;;;;;;;1.42;1.30;;;;;;;20.48;34.58;101317.03;5090263;28;20044;-68
2023/12/06 10:46:11;;;;;;;1.60;1.50;;;;;;;20.55;35.00;101336.50;5009497;28;20032;-67
2023/12/06 10:48:38;;;;;;;1.70;1.58;;;;;;;20.50;35.00;101337.03;5087836;28;20032;-68
2023/12/06 10:51:05;;;;;;;1.60;1.50;;;;;;;20.46;35.06;101332.25;5021835;28;20040;-67
2023/12/06 10:53:32;;;;;;;1.60;1.50;;;;;;;20.43;35.17;101328.13;5072425;28;20102;-67
2023/12/06 10:56:01;;;;;;;1.70;1.50;;;;;;;20.36;35.24;101329.78;5006381;28;20064;-67
2023/12/06 10:58:27;;;;;;;1.60;1.50;;;;;;;20.33;35.38;101327.47;5065809;28;20729;-68
2023/12/06 11:00:54;;;;;;;1.75;1.65;;;;;;;20.22;35.17;101320.72;5068955;28;20047;-68
2023/12/06 11:03:19;;;;;;;1.75;1.65;;;;;;;20.22;35.58;101322.53;5051914;28;20032;-68
2023/12/06 11:05:51;;;;;;;1.52;1.40;;;;;;;20.16;35.46;101316.13;5081534;28;20118;-68
2023/12/06 11:08:35;;;;;;;1.50;1.40;;;;;;;20.19;35.50;101329.00;5043126;28;20047;-68
2023/12/06 11:11:38;;;;;;;1.58;1.40;;;;;;;20.17;35.46;101323.06;5046796;28;20078;-68
2023/12/06 11:14:09;;;;;;;1.70;1.60;;;;;;;20.16;35.51;101326.72;5082068;28;20458;-68
2023/12/06 11:17:04;;;;;;;1.80;1.70;;;;;;;20.10;35.75;101324.72;5027025;28;20486;-68
2023/12/06 11:19:32;;;;;;;1.50;1.40;;;;;;;20.08;35.80;101323.25;5083224;28;20039;-67